Time;durP1;ratioP1;P1;durP2;ratioP2;P2;SDS_P1;SDS_P2;PMS_P1;PMS_P2;Temp;Humidity;BMP_temperature;BMP_pressure;BME280_temperature;BME280_humidity;BME280_pressure;Samples;Min_cycle;Max_cycle;Signal;HPM_P1;HPM_P2
2022/10/23 00:01:41;;;;;;;10.23;7.33;;;;;;;9.46;100.00;100743.17;1707527;84;21040;-74
2022/10/23 00:04:16;;;;;;;9.57;6.93;;;;;;;9.52;100.00;100734.30;1707803;83;21497;-73
2022/10/23 00:06:44;;;;;;;9.53;6.97;;;;;;;9.53;100.00;100731.66;1688498;85;21171;-73
2022/10/23 00:09:16;;;;;;;8.37;6.60;;;;;;;9.53;100.00;100736.89;1707798;83;21449;-73
2022/10/23 00:11:46;;;;;;;10.23;7.60;;;;;;;9.55;100.00;100727.67;1689864;85;21032;-73
2022/10/23 00:14:16;;;;;;;8.98;7.00;;;;;;;9.57;100.00;100721.50;1708089;84;21004;-73
2022/10/23 00:16:44;;;;;;;10.55;7.72;;;;;;;9.59;100.00;100720.16;1707623;84;21042;-73
2022/10/23 00:19:12;;;;;;;10.93;6.90;;;;;;;9.62;100.00;100724.00;1690162;84;21939;-73
2022/10/23 00:21:40;;;;;;;11.60;8.83;;;;;;;9.61;100.00;100732.27;1707437;84;21541;-73
2022/10/23 00:24:08;;;;;;;14.60;9.67;;;;;;;9.59;100.00;100735.41;1707727;84;22102;-73
2022/10/23 00:26:37;;;;;;;11.57;8.37;;;;;;;9.65;100.00;100736.14;1707669;84;20944;-73
2022/10/23 00:29:04;;;;;;;10.83;7.80;;;;;;;9.69;100.00;100733.83;1707901;84;21503;-73
2022/10/23 00:31:31;;;;;;;11.47;7.83;;;;;;;9.65;100.00;100731.77;1707694;84;21095;-73
2022/10/23 00:34:00;;;;;;;11.07;7.80;;;;;;;9.65;100.00;100734.38;1707836;84;21023;-73
2022/10/23 00:36:28;;;;;;;11.90;7.27;;;;;;;9.64;100.00;100731.79;1690074;84;21051;-73
2022/10/23 00:38:56;;;;;;;13.30;8.08;;;;;;;9.64;100.00;100736.56;1690066;84;21032;-73
2022/10/23 00:41:27;;;;;;;11.10;7.20;;;;;;;9.67;100.00;100735.63;1690134;84;21088;-73
2022/10/23 00:44:23;;;;;;;10.68;7.47;;;;;;;9.69;100.00;100738.61;1690083;84;21142;-74
2022/10/23 00:46:50;;;;;;;10.33;7.93;;;;;;;9.66;100.00;100740.47;1690286;84;21515;-73
2022/10/23 00:49:19;;;;;;;11.27;7.57;;;;;;;9.60;100.00;100737.56;1690268;84;21088;-73
2022/10/23 00:51:51;;;;;;;8.98;6.30;;;;;;;9.56;100.00;100738.53;1707754;84;21473;-73
2022/10/23 00:54:23;;;;;;;7.73;5.87;;;;;;;9.48;100.00;100737.92;1690381;84;21012;-73
2022/10/23 00:56:56;;;;;;;9.70;6.47;;;;;;;9.41;100.00;100746.81;1683455;84;21097;-73
2022/10/23 00:59:24;;;;;;;9.20;5.53;;;;;;;9.35;100.00;100747.38;1702429;84;21023;-73
2022/10/23 01:01:52;;;;;;;9.80;6.10;;;;;;;9.27;100.00;100750.65;1690356;84;21076;-76
2022/10/23 01:04:20;;;;;;;7.30;5.57;;;;;;;9.19;100.00;100748.67;1690128;84;21024;-73
2022/10/23 01:07:26;;;;;;;9.43;6.67;;;;;;;9.12;100.00;100744.52;1690350;84;21021;-73
2022/10/23 01:10:05;;;;;;;8.67;5.97;;;;;;;9.05;100.00;100742.49;1702470;84;21335;-73
2022/10/23 01:12:54;;;;;;;10.53;6.00;;;;;;;8.97;100.00;100739.66;1688943;84;21115;-73
2022/10/23 01:15:33;;;;;;;9.67;7.00;;;;;;;8.91;100.00;100741.98;1701594;84;21020;-76
2022/10/23 01:18:14;;;;;;;10.23;7.50;;;;;;;8.84;100.00;100744.33;1690303;84;21052;-73
2022/10/23 01:20:48;;;;;;;11.20;7.30;;;;;;;8.80;100.00;100745.30;1702286;84;21083;-73
2022/10/23 01:23:57;;;;;;;11.30;8.13;;;;;;;8.74;100.00;100746.77;1701757;84;21927;-73
2022/10/23 01:27:01;;;;;;;12.50;8.50;;;;;;;8.70;100.00;100745.96;1688874;84;21503;-73
2022/10/23 01:29:52;;;;;;;11.17;8.47;;;;;;;8.76;100.00;100742.34;1688639;84;21020;-73
2022/10/23 01:32:47;;;;;;;10.53;8.67;;;;;;;8.73;100.00;100753.76;1706941;82;21048;-73
2022/10/23 01:35:36;;;;;;;12.37;8.33;;;;;;;8.75;100.00;100752.39;1730058;83;21029;-73
2022/10/23 01:38:22;;;;;;;12.35;9.13;;;;;;;8.77;100.00;100748.00;1730159;82;21124;-73
2022/10/23 01:40:57;;;;;;;11.00;8.87;;;;;;;8.78;100.00;100750.55;1729949;83;20986;-73
2022/10/23 01:43:33;;;;;;;14.80;8.50;;;;;;;8.82;100.00;100752.67;1730072;82;21733;-73
2022/10/23 01:46:05;;;;;;;11.17;8.10;;;;;;;8.80;100.00;100755.31;1665060;84;21575;-73
2022/10/23 01:48:36;;;;;;;12.20;8.47;;;;;;;8.80;100.00;100754.45;1694388;84;21001;-73
2022/10/23 01:51:07;;;;;;;11.70;8.80;;;;;;;8.78;100.00;100759.70;1694611;84;22109;-73
2022/10/23 01:53:40;;;;;;;10.73;8.70;;;;;;;8.77;100.00;100765.84;1694531;84;21483;-73
2022/10/23 01:56:13;;;;;;;11.97;8.40;;;;;;;8.80;100.00;100765.77;1694515;84;21025;-73
2022/10/23 01:58:45;;;;;;;13.27;9.17;;;;;;;8.80;100.00;100765.77;1694787;84;21041;-73
2022/10/23 02:01:16;;;;;;;12.43;8.13;;;;;;;8.80;100.00;100766.22;1694599;84;21048;-73
2022/10/23 02:03:47;;;;;;;11.57;8.70;;;;;;;8.80;100.00;100772.75;1694621;84;21261;-73
2022/10/23 02:06:14;;;;;;;9.37;7.20;;;;;;;8.74;100.00;100764.61;1694940;84;20991;-73
2022/10/23 02:08:42;;;;;;;10.47;7.73;;;;;;;8.76;100.00;100769.36;1694527;84;21032;-73
2022/10/23 02:11:14;;;;;;;11.67;8.17;;;;;;;8.74;100.00;100768.53;1694904;84;21095;-73
2022/10/23 02:14:03;;;;;;;9.83;6.90;;;;;;;8.72;100.00;100772.92;1694667;84;21434;-74
2022/10/23 02:16:50;;;;;;;9.37;7.33;;;;;;;8.69;100.00;100772.55;1694555;84;21126;-73
2022/10/23 02:19:39;;;;;;;8.87;7.27;;;;;;;8.67;100.00;100773.05;1694922;84;21048;-73
2022/10/23 02:22:28;;;;;;;7.40;6.33;;;;;;;8.65;100.00;100764.84;1694801;84;20999;-74
2022/10/23 02:25:06;;;;;;;11.00;7.23;;;;;;;8.63;100.00;100766.62;1694749;84;21053;-73
2022/10/23 02:27:41;;;;;;;11.57;7.50;;;;;;;8.58;100.00;100765.86;1694556;84;21077;-73
2022/10/23 02:30:13;;;;;;;10.20;7.60;;;;;;;8.59;100.00;100762.34;1694911;84;21937;-73
2022/10/23 02:32:47;;;;;;;9.30;6.93;;;;;;;8.71;100.00;100765.99;1692373;84;21033;-81
2022/10/23 02:35:19;;;;;;;9.90;7.43;;;;;;;8.74;100.00;100770.29;1685213;85;21044;-73
2022/10/23 02:37:59;;;;;;;9.07;7.13;;;;;;;8.73;100.00;100772.05;1686498;85;21030;-73
2022/10/23 02:40:40;;;;;;;11.17;7.60;;;;;;;8.70;100.00;100771.67;1673502;85;21021;-73
2022/10/23 02:43:28;;;;;;;8.47;6.80;;;;;;;8.70;100.00;100775.59;1685190;85;21119;-73
2022/10/23 02:46:15;;;;;;;10.43;7.00;;;;;;;8.69;100.00;100780.38;1684299;85;20961;-72
2022/10/23 02:48:50;;;;;;;9.40;7.03;;;;;;;8.70;100.00;100779.94;1684646;85;21013;-72
2022/10/23 02:51:26;;;;;;;9.27;6.87;;;;;;;8.73;100.00;100776.39;1683895;85;21041;-73
2022/10/23 02:54:07;;;;;;;9.43;7.00;;;;;;;8.74;100.00;100780.74;1684836;85;21015;-73
2022/10/23 02:56:46;;;;;;;8.37;6.80;;;;;;;8.73;100.00;100782.92;1685145;85;21142;-72
2022/10/23 02:59:45;;;;;;;9.63;7.27;;;;;;;8.74;100.00;100780.74;1684718;85;21033;-73
2022/10/23 03:02:23;;;;;;;9.53;6.50;;;;;;;8.75;100.00;100784.61;1685153;85;21029;-72
2022/10/23 03:04:54;;;;;;;10.13;6.93;;;;;;;8.76;100.00;100777.62;1685349;85;20930;-72
2022/10/23 03:07:21;;;;;;;8.60;6.67;;;;;;;8.78;100.00;100785.84;1685097;85;21037;-81
2022/10/23 03:09:48;;;;;;;9.67;6.87;;;;;;;8.78;100.00;100785.84;1685081;85;22008;-72
2022/10/23 03:12:15;;;;;;;11.83;7.67;;;;;;;8.76;100.00;100788.97;1685196;85;21042;-73
2022/10/23 03:14:42;;;;;;;9.10;6.90;;;;;;;8.74;100.00;100788.12;1685412;85;21009;-72
2022/10/23 03:17:09;;;;;;;11.70;7.57;;;;;;;8.72;100.00;100792.52;1685112;85;21029;-72
2022/10/23 03:19:37;;;;;;;8.33;6.07;;;;;;;8.71;100.00;100791.67;1685264;85;21109;-73
2022/10/23 03:22:04;;;;;;;11.43;7.17;;;;;;;8.65;100.00;100790.52;1685322;85;21237;-73
2022/10/23 03:24:31;;;;;;;8.93;7.27;;;;;;;8.61;100.00;100790.16;1685000;85;21446;-73
2022/10/23 03:26:59;;;;;;;10.23;6.73;;;;;;;8.57;100.00;100789.83;1685301;85;21037;-73
2022/10/23 03:29:28;;;;;;;11.57;7.33;;;;;;;8.57;100.00;100791.13;1728420;82;21040;-73
2022/10/23 03:31:55;;;;;;;9.37;6.40;;;;;;;8.55;100.00;100789.45;1728015;83;21030;-73
2022/10/23 03:34:22;;;;;;;9.83;6.43;;;;;;;8.55;100.00;100794.67;1685545;85;21936;-73
2022/10/23 03:36:49;;;;;;;10.60;7.13;;;;;;;8.52;100.00;100790.82;1684977;85;21029;-73
2022/10/23 03:39:18;;;;;;;9.23;6.50;;;;;;;8.51;100.00;100790.39;1728161;82;20994;-73
2022/10/23 03:41:45;;;;;;;10.93;7.53;;;;;;;8.49;100.00;100794.36;1728089;83;21021;-73
2022/10/23 03:44:14;;;;;;;8.57;7.67;;;;;;;8.54;100.00;100789.05;1728196;82;20990;-73
2022/10/23 03:46:43;;;;;;;8.50;6.50;;;;;;;8.52;100.00;100785.14;1727962;82;21122;-73
2022/10/23 03:49:10;;;;;;;10.27;6.97;;;;;;;8.54;100.00;100774.67;1728074;83;21042;-73
2022/10/23 03:51:40;;;;;;;10.53;7.13;;;;;;;8.51;100.00;100776.91;1727866;83;21006;-73
2022/10/23 03:54:07;;;;;;;8.63;6.60;;;;;;;8.50;100.00;100780.39;1727974;83;21081;-73
2022/10/23 03:56:35;;;;;;;11.20;7.27;;;;;;;8.46;100.00;100773.53;1727838;83;21077;-73
2022/10/23 03:59:03;;;;;;;9.60;7.20;;;;;;;8.49;100.00;100772.16;1728127;83;21687;-73
2022/10/23 04:01:30;;;;;;;10.07;6.27;;;;;;;8.50;100.00;100769.94;1727916;83;20982;-73
2022/10/23 04:03:57;;;;;;;8.50;7.10;;;;;;;8.49;100.00;100772.16;1727899;83;21538;-73
2022/10/23 04:06:25;;;;;;;9.03;6.07;;;;;;;8.45;100.00;100773.98;1728393;83;21461;-73
2022/10/23 04:08:53;;;;;;;9.67;6.90;;;;;;;8.44;100.00;100767.02;1728440;82;21010;-73
2022/10/23 04:11:20;;;;;;;8.67;6.63;;;;;;;8.44;100.00;100766.17;1728322;83;21131;-74
2022/10/23 04:13:48;;;;;;;8.20;6.40;;;;;;;8.44;100.00;100772.25;1727971;83;21070;-73
2022/10/23 04:16:16;;;;;;;8.10;6.13;;;;;;;8.43;100.00;100772.30;1728052;83;21014;-73
2022/10/23 04:18:45;;;;;;;7.57;5.93;;;;;;;8.40;100.00;100771.06;1728423;83;21003;-73
2022/10/23 04:21:12;;;;;;;10.53;5.93;;;;;;;8.37;100.00;100775.87;1728391;83;21479;-73
2022/10/23 04:23:39;;;;;;;7.20;5.73;;;;;;;8.34;100.00;100778.55;1726266;83;21144;-75
2022/10/23 04:26:08;;;;;;;7.83;6.03;;;;;;;8.35;100.00;100775.04;1682368;85;21053;-70
2022/10/23 04:28:35;;;;;;;6.67;5.70;;;;;;;8.35;100.00;100774.19;1682962;85;20965;-74
2022/10/23 04:31:02;;;;;;;6.27;5.50;;;;;;;8.39;100.00;100783.69;1661135;85;21116;-75
2022/10/23 04:33:29;;;;;;;10.47;6.40;;;;;;;8.38;100.00;100784.56;1682732;83;21053;-81
2022/10/23 04:35:56;;;;;;;8.30;5.27;;;;;;;8.38;100.00;100782.80;1682983;85;21943;-79
2022/10/23 04:38:25;;;;;;;6.37;4.63;;;;;;;8.38;100.00;100780.64;1682162;85;21457;-72
2022/10/23 04:40:52;;;;;;;6.63;4.73;;;;;;;8.30;100.00;100783.42;1683344;83;21046;-71
2022/10/23 04:43:22;;;;;;;;;;;;;;;8.26;100.00;100790.47;1685485;83;22295;-72
2022/10/23 04:45:49;;;;;;;8.73;5.50;;;;;;;8.24;100.00;100790.94;1660486;85;20504;-72
2022/10/23 04:48:16;;;;;;;6.20;5.03;;;;;;;8.20;100.00;100793.63;1682889;83;21150;-74
2022/10/23 04:50:57;;;;;;;7.40;4.90;;;;;;;8.16;100.00;100793.30;1654690;85;21297;-72
2022/10/23 04:53:41;;;;;;;5.78;4.87;;;;;;;8.12;100.00;100802.07;1581767;90;21075;-72
2022/10/23 04:56:26;;;;;;;9.00;5.43;;;;;;;8.08;100.00;100801.73;1723149;82;21481;-72
2022/10/23 04:58:57;;;;;;;6.33;5.37;;;;;;;8.08;100.00;100804.34;1745636;81;21017;-71
2022/10/23 05:01:25;;;;;;;5.70;5.10;;;;;;;8.14;100.00;100810.73;1745207;81;21866;-71
2022/10/23 05:03:52;;;;;;;5.70;5.10;;;;;;;8.13;100.00;100803.81;1746541;82;21033;-72
2022/10/23 05:06:20;;;;;;;5.90;4.50;;;;;;;8.10;100.00;100805.18;1746292;82;21076;-75
2022/10/23 05:08:48;;;;;;;5.87;4.93;;;;;;;8.07;100.00;100817.00;1720945;81;21069;-76
2022/10/23 05:11:18;;;;;;;6.30;4.20;;;;;;;8.04;100.00;100816.16;1746667;82;21044;-73
2022/10/23 05:13:47;;;;;;;5.40;4.10;;;;;;;8.03;100.00;100817.03;1745962;81;21061;-71
2022/10/23 05:16:40;;;;;;;5.40;4.20;;;;;;;8.00;100.00;100819.70;1746242;82;21094;-71
2022/10/23 05:19:11;;;;;;;4.57;4.07;;;;;;;7.99;100.00;100808.00;1745273;81;21473;-74
2022/10/23 05:21:39;;;;;;;4.97;4.13;;;;;;;7.99;100.00;100806.70;1710566;83;21063;-72
2022/10/23 05:24:07;;;;;;;4.33;3.20;;;;;;;7.96;100.00;100802.84;1710544;83;21947;-71
2022/10/23 05:26:34;;;;;;;6.50;3.90;;;;;;;7.95;100.00;100806.33;1710203;83;21953;-71
2022/10/23 05:29:03;;;;;;;6.73;4.17;;;;;;;7.90;100.00;100801.22;1709793;83;20942;-71
2022/10/23 05:31:33;;;;;;;4.90;4.00;;;;;;;7.90;100.00;100805.13;1675986;85;21035;-72
2022/10/23 05:34:01;;;;;;;7.43;5.20;;;;;;;7.88;100.00;100807.36;1740628;81;21025;-71
2022/10/23 05:36:29;;;;;;;5.90;4.90;;;;;;;7.87;100.00;100806.50;1733258;81;21021;-73
2022/10/23 05:38:58;;;;;;;5.07;4.33;;;;;;;7.89;100.00;100807.31;1701168;82;21227;-73
2022/10/23 05:41:25;;;;;;;6.10;5.10;;;;;;;7.87;100.00;100810.84;1735621;82;21077;-73
2022/10/23 05:43:54;;;;;;;8.33;5.23;;;;;;;7.87;100.00;100808.22;1692242;84;21430;-78
2022/10/23 05:46:33;;;;;;;7.57;5.80;;;;;;;7.86;100.00;100807.82;1605613;89;21032;-73
2022/10/23 05:49:11;;;;;;;7.33;4.83;;;;;;;7.89;100.00;100802.54;1680044;85;21039;-80
2022/10/23 05:51:57;;;;;;;7.13;4.93;;;;;;;7.90;100.00;100810.77;1735898;82;21975;-72
2022/10/23 05:54:26;;;;;;;9.47;6.40;;;;;;;7.90;100.00;100810.35;1733410;82;21013;-73
2022/10/23 05:56:55;;;;;;;7.13;5.53;;;;;;;7.94;100.00;100805.47;1691777;84;21037;-73
2022/10/23 05:59:24;;;;;;;7.30;5.30;;;;;;;7.95;100.00;100808.94;1691397;84;21013;-72
2022/10/23 06:02:05;;;;;;;7.60;5.67;;;;;;;7.93;100.00;100801.16;1633491;84;21263;-73
2022/10/23 06:04:37;;;;;;;5.70;4.67;;;;;;;7.99;100.00;100810.16;1691376;84;21147;-74
2022/10/23 06:07:24;;;;;;;6.80;4.50;;;;;;;7.99;100.00;100801.03;1692634;84;21041;-73
2022/10/23 06:09:53;;;;;;;5.40;4.80;;;;;;;7.99;100.00;100807.55;1692607;84;21018;-73
2022/10/23 06:12:22;;;;;;;7.20;4.93;;;;;;;8.00;100.00;100807.95;1692851;84;21005;-73
2022/10/23 06:14:50;;;;;;;5.30;4.45;;;;;;;8.04;100.00;100812.69;1663082;84;21009;-73
2022/10/23 06:17:17;;;;;;;8.57;6.00;;;;;;;8.04;100.00;100821.38;1692800;84;22026;-74
2022/10/23 06:19:46;;;;;;;8.27;6.50;;;;;;;8.08;100.00;100823.92;1692535;84;21041;-73
2022/10/23 06:22:15;;;;;;;8.27;6.33;;;;;;;8.17;100.00;100814.14;1693351;84;21002;-73
2022/10/23 06:24:47;;;;;;;7.23;5.50;;;;;;;8.26;100.00;100813.12;1690934;84;21052;-73
2022/10/23 06:27:16;;;;;;;10.30;7.10;;;;;;;8.31;100.00;100818.22;1691893;84;21029;-73
2022/10/23 06:29:45;;;;;;;8.77;6.23;;;;;;;8.37;100.00;100826.81;1692640;84;21246;-73
2022/10/23 06:32:12;;;;;;;7.13;5.97;;;;;;;8.44;100.00;100821.88;1736072;82;21037;-73
2022/10/23 06:34:40;;;;;;;9.37;6.60;;;;;;;8.51;100.00;100825.23;1744068;82;21041;-73
2022/10/23 06:37:08;;;;;;;9.00;6.73;;;;;;;8.59;100.00;100832.47;1751449;82;21467;-73
2022/10/23 06:39:39;;;;;;;12.37;6.73;;;;;;;8.64;100.00;100829.73;1737067;82;21024;-73
2022/10/23 06:42:16;;;;;;;10.07;7.53;;;;;;;8.71;100.00;100823.03;1751119;82;21487;-73
2022/10/23 06:44:56;;;;;;;10.27;7.57;;;;;;;8.80;100.00;100828.49;1751300;82;21024;-72
2022/10/23 06:47:42;;;;;;;11.50;7.50;;;;;;;8.86;100.00;100828.80;1751539;82;20990;-73
2022/10/23 06:50:23;;;;;;;10.68;8.55;;;;;;;8.94;100.00;100825.56;1751547;82;21463;-73
2022/10/23 06:52:52;;;;;;;13.32;8.35;;;;;;;9.01;100.00;100828.91;1751517;82;21063;-73
2022/10/23 06:55:22;;;;;;;;;;;;;;;9.05;100.00;100824.86;1754121;82;21148;-73
2022/10/23 06:57:49;;;;;;;11.20;8.30;;;;;;;9.11;100.00;100823.39;1751366;82;20162;-73
2022/10/23 07:00:17;;;;;;;10.50;7.60;;;;;;;9.16;100.00;100822.84;1751444;82;21017;-73
2022/10/23 07:02:52;;;;;;;11.03;7.40;;;;;;;9.22;100.00;100828.37;1751455;82;21458;-73
2022/10/23 07:05:20;;;;;;;9.67;7.40;;;;;;;9.30;100.00;100834.73;1751428;82;21013;-73
2022/10/23 07:07:47;;;;;;;12.43;7.47;;;;;;;9.34;100.00;100833.31;1751345;82;22008;-73
2022/10/23 07:10:17;;;;;;;12.53;7.10;;;;;;;9.42;100.00;100830.94;1738213;82;20910;-73
2022/10/23 07:12:47;;;;;;;9.57;7.53;;;;;;;9.50;100.00;100823.30;1738059;82;21037;-73
2022/10/23 07:15:22;;;;;;;11.43;7.83;;;;;;;9.58;100.00;100823.10;1743137;82;21469;-73
2022/10/23 07:17:49;;;;;;;9.80;7.35;;;;;;;9.67;100.00;100827.23;1751294;82;21084;-73
2022/10/23 07:20:18;;;;;;;9.68;7.15;;;;;;;9.76;100.00;100830.48;1751662;82;21180;-73
2022/10/23 07:22:55;;;;;;;10.80;8.13;;;;;;;9.87;100.00;100838.51;1738078;82;21056;-78
2022/10/23 07:25:27;;;;;;;9.03;7.65;;;;;;;9.96;100.00;100831.70;1750475;81;21080;-73
2022/10/23 07:27:55;;;;;;;10.47;7.70;;;;;;;10.07;100.00;100833.56;1751389;82;21020;-73
2022/10/23 07:30:23;;;;;;;10.95;8.18;;;;;;;10.16;100.00;100838.53;1751591;82;21076;-74
2022/10/23 07:32:52;;;;;;;15.38;8.33;;;;;;;10.29;100.00;100836.47;1738092;82;21131;-79
2022/10/23 07:35:39;;;;;;;12.47;8.63;;;;;;;10.39;100.00;100837.93;1737721;81;21037;-73
2022/10/23 07:38:09;;;;;;;11.70;8.10;;;;;;;10.51;100.00;100839.32;1692277;84;21049;-73
2022/10/23 07:40:37;;;;;;;11.10;7.90;;;;;;;10.59;100.00;100824.23;1692527;84;21057;-73
2022/10/23 07:43:06;;;;;;;11.43;7.30;;;;;;;10.69;100.00;100833.97;1692527;84;21072;-73
2022/10/23 07:45:35;;;;;;;12.50;7.97;;;;;;;10.79;100.00;100828.00;1692552;84;21154;-73
2022/10/23 07:48:05;;;;;;;11.08;7.78;;;;;;;10.87;100.00;100839.96;1691544;84;21475;-73
2022/10/23 07:50:35;;;;;;;11.33;8.03;;;;;;;10.94;100.00;100836.22;1690693;84;21036;-73
2022/10/23 07:53:03;;;;;;;9.85;8.10;;;;;;;11.04;100.00;100839.42;1663509;84;21694;-73
2022/10/23 07:55:32;;;;;;;10.77;8.40;;;;;;;11.11;100.00;100834.83;1691241;84;21397;-73
2022/10/23 07:58:01;;;;;;;12.67;8.70;;;;;;;11.18;100.00;100838.98;1691893;84;21134;-72
2022/10/23 08:00:40;;;;;;;11.83;8.18;;;;;;;11.26;100.00;100838.74;1691910;84;21095;-73
2022/10/23 08:03:11;;;;;;;10.53;7.03;;;;;;;11.35;100.00;100839.73;1692179;84;21029;-73
2022/10/23 08:05:38;;;;;;;9.30;7.47;;;;;;;11.44;100.00;100843.36;1692609;84;21081;-73
2022/10/23 08:08:05;;;;;;;9.23;7.85;;;;;;;11.51;100.00;100843.57;1735753;82;21018;-72
2022/10/23 08:10:33;;;;;;;11.70;7.47;;;;;;;11.59;100.00;100844.63;1735719;82;21567;-73
2022/10/23 08:13:00;;;;;;;10.13;7.45;;;;;;;11.66;100.00;100849.20;1736027;82;20990;-73
2022/10/23 08:15:48;;;;;;;9.65;7.15;;;;;;;11.74;100.00;100849.34;1735738;82;21543;-72
2022/10/23 08:18:18;;;;;;;10.55;7.10;;;;;;;11.84;100.00;100843.33;1688189;84;21060;-72
2022/10/23 08:20:47;;;;;;;10.08;7.33;;;;;;;11.93;100.00;100842.17;1735782;81;21037;-72
2022/10/23 08:23:17;;;;;;;9.50;7.17;;;;;;;12.05;100.00;100845.66;1736029;82;21992;-72
2022/10/23 08:25:46;;;;;;;11.93;7.40;;;;;;;12.16;100.00;100838.24;1735839;82;21018;-73
2022/10/23 08:28:15;;;;;;;10.15;7.05;;;;;;;12.26;100.00;100840.94;1663137;84;21481;-73
2022/10/23 08:30:43;;;;;;;;;;;;;;;12.35;100.00;100837.11;1694049;84;21021;-78
2022/10/23 08:33:11;;;;;;;13.18;6.72;;;;;;;12.44;100.00;100836.78;1692701;84;20437;-73
2022/10/23 08:35:38;;;;;;;10.32;7.67;;;;;;;12.55;100.00;100832.41;1746000;82;21232;-73
2022/10/23 08:38:07;;;;;;;10.03;6.97;;;;;;;12.71;100.00;100828.73;1751507;82;21037;-73
2022/10/23 08:40:36;;;;;;;11.63;7.80;;;;;;;12.88;100.00;100832.86;1737890;82;21021;-73
2022/10/23 08:43:14;;;;;;;10.15;7.33;;;;;;;13.03;100.00;100825.30;1738305;82;21002;-73
2022/10/23 08:45:48;;;;;;;11.55;7.28;;;;;;;13.18;100.00;100818.93;1736322;82;21013;-73
2022/10/23 08:48:30;;;;;;;10.28;7.25;;;;;;;13.33;100.00;100826.70;1734177;82;21100;-73
2022/10/23 08:51:26;;;;;;;11.33;7.83;;;;;;;13.48;100.00;100825.20;1723220;82;21011;-73
2022/10/23 08:54:08;;;;;;;11.05;7.37;;;;;;;13.67;100.00;100834.49;1751406;81;20970;-73
2022/10/23 08:56:43;;;;;;;13.55;7.22;;;;;;;13.80;100.00;100843.59;1751389;82;20952;-73
2022/10/23 08:59:27;;;;;;;8.65;6.42;;;;;;;13.97;100.00;100840.67;1751640;82;21036;-80
2022/10/23 09:02:24;;;;;;;8.00;6.50;;;;;;;14.12;100.00;100843.08;1752123;81;21304;-73
2022/10/23 09:04:54;;;;;;;10.28;6.10;;;;;;;14.30;100.00;100839.63;1717386;82;21072;-73
2022/10/23 09:07:56;;;;;;;9.90;6.12;;;;;;;14.47;100.00;100843.66;1751474;82;21469;-73
2022/10/23 09:10:41;;;;;;;7.03;5.80;;;;;;;14.63;100.00;100844.28;1751780;82;21052;-73
2022/10/23 09:13:38;;;;;;;10.43;5.60;;;;;;;14.80;100.00;100836.45;1750491;81;21005;-73
2022/10/23 09:16:22;;;;;;;8.35;5.65;;;;;;;15.15;100.00;100836.52;1751692;82;21514;-73
2022/10/23 09:18:50;;;;;;;9.35;5.53;;;;;;;15.15;100.00;100836.52;1750401;81;21033;-73
2022/10/23 09:21:18;;;;;;;5.78;4.72;;;;;;;15.34;100.00;100853.63;1751586;82;21017;-74
2022/10/23 09:23:45;;;;;;;7.33;5.15;;;;;;;15.51;100.00;100849.67;1751387;82;21009;-73
2022/10/23 09:26:16;;;;;;;9.33;5.25;;;;;;;15.70;100.00;100852.74;1751608;82;21553;-73
2022/10/23 09:28:50;;;;;;;9.23;4.78;;;;;;;15.83;100.00;100852.51;1751370;82;22128;-73
2022/10/23 09:31:18;;;;;;;7.40;5.17;;;;;;;15.95;100.00;100853.66;1751422;82;21013;-73
2022/10/23 09:34:00;;;;;;;9.18;5.05;;;;;;;16.17;100.00;100852.91;1751670;82;21021;-73
2022/10/23 09:36:29;;;;;;;5.87;4.35;;;;;;;16.38;100.00;100849.59;1751458;82;21053;-73
2022/10/23 09:38:59;;;;;;;7.50;4.30;;;;;;;16.51;100.00;100849.76;1751294;82;21559;-73
2022/10/23 09:41:36;;;;;;;6.12;4.10;;;;;;;16.65;100.00;100850.33;1751714;82;22299;-73
2022/10/23 09:44:26;;;;;;;7.42;4.70;;;;;;;16.88;100.00;100846.45;1751284;82;21029;-73
2022/10/23 09:47:07;;;;;;;6.67;3.85;;;;;;;17.14;100.00;100848.45;1751726;82;21021;-73
2022/10/23 09:49:37;;;;;;;6.25;3.98;;;;;;;17.49;100.00;100839.42;1751406;82;21048;-73
2022/10/23 09:52:16;;;;;;;6.25;3.80;;;;;;;17.82;100.00;100840.57;1731026;82;21136;-73
2022/10/23 09:54:50;;;;;;;8.43;4.22;;;;;;;18.05;99.52;100843.98;1751455;82;21482;-73
2022/10/23 09:57:42;;;;;;;6.37;3.80;;;;;;;18.33;98.97;100834.80;1750263;81;21037;-73
2022/10/23 10:00:21;;;;;;;7.10;4.85;;;;;;;18.51;97.88;100828.31;1751398;82;21022;-73
2022/10/23 10:02:59;;;;;;;9.38;4.12;;;;;;;18.63;96.78;100823.58;1751426;82;21057;-73
2022/10/23 10:05:37;;;;;;;6.45;4.78;;;;;;;18.60;96.17;100825.09;1749986;81;21009;-73
2022/10/23 10:08:29;;;;;;;6.90;4.45;;;;;;;18.82;96.28;100817.13;1731097;82;21572;-73
2022/10/23 10:11:13;;;;;;;8.30;4.70;;;;;;;19.06;95.50;100814.64;1751339;82;21065;-77
2022/10/23 10:14:16;;;;;;;7.30;3.35;;;;;;;19.30;95.20;100810.84;1751412;82;20989;-73
2022/10/23 10:16:57;;;;;;;5.25;3.62;;;;;;;19.56;94.49;100805.92;1751796;82;21014;-72
2022/10/23 10:19:54;;;;;;;8.38;3.45;;;;;;;19.71;93.90;100809.87;1751116;81;21123;-73
2022/10/23 10:22:48;;;;;;;5.65;3.47;;;;;;;20.00;93.50;100802.52;1750660;81;21487;-73
2022/10/23 10:25:35;;;;;;;5.67;4.05;;;;;;;20.43;92.97;100802.16;1751380;82;21533;-73
2022/10/23 10:28:42;;;;;;;6.40;4.60;;;;;;;20.69;92.11;100801.61;1751650;82;21025;-73
2022/10/23 10:31:40;;;;;;;8.25;4.72;;;;;;;20.80;90.77;100801.67;1751290;82;22007;-72
2022/10/23 10:34:15;;;;;;;6.72;3.72;;;;;;;20.91;90.22;100783.56;1751650;82;21530;-73
2022/10/23 10:37:15;;;;;;;6.28;3.65;;;;;;;21.00;89.29;100786.02;1737631;81;21141;-73
2022/10/23 10:39:45;;;;;;;;;;;;;;;21.13;89.28;100793.48;1737428;82;21500;-72
2022/10/23 10:42:37;;;;;;;10.88;4.05;;;;;;;21.31;87.51;100789.89;1735408;82;20171;-72
2022/10/23 10:45:32;;;;;;;5.37;3.67;;;;;;;21.41;88.32;100788.27;1735791;81;21034;-73
2022/10/23 10:48:34;;;;;;;6.70;3.98;;;;;;;21.60;87.76;100784.55;1735719;81;21483;-73
2022/10/23 10:51:08;;;;;;;6.10;3.67;;;;;;;21.79;87.42;100785.80;1728619;82;21920;-73
2022/10/23 10:54:04;;;;;;;7.08;3.77;;;;;;;21.90;86.07;100783.63;1735775;82;20990;-73
2022/10/23 10:56:35;;;;;;;6.40;3.65;;;;;;;21.89;85.66;100785.42;1735941;82;21033;-72
2022/10/23 10:59:13;;;;;;;5.80;4.15;;;;;;;21.95;85.49;100783.63;1736043;82;20998;-73
2022/10/23 11:02:03;;;;;;;7.55;3.85;;;;;;;22.07;84.96;100783.63;1736043;82;21038;-73
2022/10/23 11:04:51;;;;;;;6.78;3.95;;;;;;;22.17;84.57;100777.44;1734679;82;21110;-73
2022/10/23 11:07:28;;;;;;;5.17;3.70;;;;;;;22.31;84.33;100782.17;1735932;82;20990;-73
2022/10/23 11:09:59;;;;;;;5.53;3.47;;;;;;;22.36;83.45;100774.64;1715552;82;21018;-73
2022/10/23 11:12:28;;;;;;;7.33;3.40;;;;;;;22.37;83.12;100765.19;1736082;82;21475;-73
2022/10/23 11:14:56;;;;;;;5.50;3.52;;;;;;;22.47;82.63;100765.27;1736166;81;25933;-72
2022/10/23 11:17:32;;;;;;;3.77;2.50;;;;;;;22.51;82.44;100760.55;1663071;84;21114;-72
2022/10/23 11:20:27;;;;;;;9.05;2.80;;;;;;;22.64;82.26;100763.89;1691703;84;21048;-73
2022/10/23 11:23:09;;;;;;;5.03;2.12;;;;;;;22.83;81.30;100765.91;1735239;82;21046;-72
2022/10/23 11:26:19;;;;;;;4.62;2.20;;;;;;;23.01;80.86;100763.08;1734595;82;20941;-72
2022/10/23 11:28:57;;;;;;;5.37;1.98;;;;;;;23.12;80.01;100760.35;1735475;82;21514;-73
2022/10/23 11:31:47;;;;;;;5.70;1.98;;;;;;;23.15;78.93;100760.59;1735395;82;21178;-72
2022/10/23 11:34:39;;;;;;;6.30;1.98;;;;;;;23.05;78.21;100752.97;1735221;82;21006;-72
2022/10/23 11:37:07;;;;;;;7.10;2.42;;;;;;;23.24;78.39;100753.11;1749100;82;21470;-72
2022/10/23 11:39:38;;;;;;;7.95;2.15;;;;;;;23.21;77.45;100740.50;1751815;82;21291;-72
2022/10/23 11:42:13;;;;;;;7.12;2.45;;;;;;;23.24;77.11;100745.59;1728895;82;21016;-72
2022/10/23 11:44:45;;;;;;;3.87;1.80;;;;;;;23.26;76.81;100736.45;1748620;81;21177;-72
2022/10/23 11:47:35;;;;;;;4.22;2.35;;;;;;;23.18;75.99;100722.89;1738031;82;21590;-73
2022/10/23 11:50:17;;;;;;;6.22;3.27;;;;;;;23.13;75.95;100721.93;1738534;82;21001;-72
2022/10/23 11:53:03;;;;;;;6.17;2.35;;;;;;;23.07;75.54;100714.93;1750558;81;21519;-72
2022/10/23 11:55:32;;;;;;;6.03;1.85;;;;;;;23.01;75.26;100715.45;1751233;81;21477;-72
2022/10/23 11:58:07;;;;;;;3.95;1.77;;;;;;;22.97;74.89;100715.34;1751371;82;27087;-73